sensor_id;sensor_type;location;lat;lon;timestamp;P1;durP1;ratioP1;P2;durP2;ratioP2
56242;SDS011;42155;53.096;23.226;2022-12-18T00:00:53;19.50;;;6.65;;
56242;SDS011;42155;53.096;23.226;2022-12-18T00:02:53;26.58;;;9.88;;
56242;SDS011;42155;53.096;23.226;2022-12-18T00:04:55;25.30;;;9.43;;
56242;SDS011;42155;53.096;23.226;2022-12-18T00:06:55;14.32;;;5.70;;
56242;SDS011;42155;53.096;23.226;2022-12-18T00:08:57;20.98;;;8.20;;
56242;SDS011;42155;53.096;23.226;2022-12-18T00:11:03;23.88;;;8.93;;
56242;SDS011;42155;53.096;23.226;2022-12-18T00:13:05;26.45;;;10.13;;
56242;SDS011;42155;53.096;23.226;2022-12-18T00:15:05;24.33;;;9.23;;
56242;SDS011;42155;53.096;23.226;2022-12-18T00:17:06;24.75;;;8.93;;
56242;SDS011;42155;53.096;23.226;2022-12-18T00:19:06;23.95;;;9.55;;
56242;SDS011;42155;53.096;23.226;2022-12-18T00:21:08;26.98;;;10.77;;
56242;SDS011;42155;53.096;23.226;2022-12-18T00:23:10;25.17;;;10.18;;
56242;SDS011;42155;53.096;23.226;2022-12-18T00:25:11;25.45;;;10.15;;
56242;SDS011;42155;53.096;23.226;2022-12-18T00:27:11;25.60;;;10.40;;
56242;SDS011;42155;53.096;23.226;2022-12-18T00:29:12;30.67;;;11.23;;
56242;SDS011;42155;53.096;23.226;2022-12-18T00:31:14;19.58;;;8.15;;
56242;SDS011;42155;53.096;23.226;2022-12-18T00:33:17;30.63;;;10.77;;
56242;SDS011;42155;53.096;23.226;2022-12-18T00:35:17;28.55;;;10.60;;
56242;SDS011;42155;53.096;23.226;2022-12-18T00:37:18;30.45;;;11.15;;
56242;SDS011;42155;53.096;23.226;2022-12-18T00:39:18;29.25;;;10.80;;
56242;SDS011;42155;53.096;23.226;2022-12-18T00:41:18;29.95;;;11.38;;
56242;SDS011;42155;53.096;23.226;2022-12-18T00:43:19;19.08;;;6.32;;
56242;SDS011;42155;53.096;23.226;2022-12-18T00:45:19;26.67;;;11.30;;
56242;SDS011;42155;53.096;23.226;2022-12-18T00:47:19;13.27;;;5.05;;
56242;SDS011;42155;53.096;23.226;2022-12-18T00:49:20;35.00;;;12.27;;
56242;SDS011;42155;53.096;23.226;2022-12-18T00:51:20;13.57;;;5.80;;
56242;SDS011;42155;53.096;23.226;2022-12-18T00:53:21;24.63;;;11.23;;
56242;SDS011;42155;53.096;23.226;2022-12-18T00:55:21;22.42;;;9.02;;
56242;SDS011;42155;53.096;23.226;2022-12-18T00:57:22;24.98;;;10.48;;
56242;SDS011;42155;53.096;23.226;2022-12-18T00:59:22;23.20;;;9.57;;
56242;SDS011;42155;53.096;23.226;2022-12-18T01:01:22;26.63;;;10.25;;
56242;SDS011;42155;53.096;23.226;2022-12-18T01:03:23;25.85;;;10.60;;
56242;SDS011;42155;53.096;23.226;2022-12-18T01:05:23;25.50;;;11.13;;
56242;SDS011;42155;53.096;23.226;2022-12-18T01:07:23;28.23;;;10.50;;
56242;SDS011;42155;53.096;23.226;2022-12-18T01:09:24;26.52;;;11.00;;
56242;SDS011;42155;53.096;23.226;2022-12-18T01:11:24;22.90;;;9.95;;
56242;SDS011;42155;53.096;23.226;2022-12-18T01:13:25;25.80;;;10.93;;
56242;SDS011;42155;53.096;23.226;2022-12-18T01:15:25;25.48;;;11.05;;
56242;SDS011;42155;53.096;23.226;2022-12-18T01:17:25;24.38;;;10.30;;
56242;SDS011;42155;53.096;23.226;2022-12-18T01:19:26;28.15;;;12.25;;
56242;SDS011;42155;53.096;23.226;2022-12-18T01:21:26;23.27;;;9.50;;
56242;SDS011;42155;53.096;23.226;2022-12-18T01:23:27;28.52;;;11.52;;
56242;SDS011;42155;53.096;23.226;2022-12-18T01:25:27;28.65;;;11.15;;
56242;SDS011;42155;53.096;23.226;2022-12-18T01:27:27;26.42;;;11.00;;
56242;SDS011;42155;53.096;23.226;2022-12-18T01:29:28;23.52;;;10.43;;
56242;SDS011;42155;53.096;23.226;2022-12-18T01:31:29;23.67;;;10.43;;
56242;SDS011;42155;53.096;23.226;2022-12-18T01:33:30;19.83;;;8.95;;
56242;SDS011;42155;53.096;23.226;2022-12-18T01:35:31;20.83;;;7.35;;
56242;SDS011;42155;53.096;23.226;2022-12-18T01:37:31;26.67;;;10.35;;
56242;SDS011;42155;53.096;23.226;2022-12-18T01:39:32;21.52;;;8.27;;
56242;SDS011;42155;53.096;23.226;2022-12-18T01:41:33;19.60;;;8.20;;
56242;SDS011;42155;53.096;23.226;2022-12-18T01:45:59;24.25;;;9.48;;
56242;SDS011;42155;53.096;23.226;2022-12-18T01:48:00;22.35;;;9.15;;
56242;SDS011;42155;53.096;23.226;2022-12-18T01:50:08;27.20;;;11.57;;
56242;SDS011;42155;53.096;23.226;2022-12-18T01:52:15;21.40;;;7.63;;
56242;SDS011;42155;53.096;23.226;2022-12-18T01:54:17;21.35;;;9.10;;
56242;SDS011;42155;53.096;23.226;2022-12-18T01:56:18;30.33;;;11.68;;
56242;SDS011;42155;53.096;23.226;2022-12-18T01:58:22;22.50;;;9.57;;
56242;SDS011;42155;53.096;23.226;2022-12-18T02:00:45;27.75;;;11.43;;
56242;SDS011;42155;53.096;23.226;2022-12-18T02:02:46;18.58;;;7.40;;
56242;SDS011;42155;53.096;23.226;2022-12-18T02:04:46;26.17;;;10.75;;
56242;SDS011;42155;53.096;23.226;2022-12-18T02:06:47;20.20;;;9.93;;
56242;SDS011;42155;53.096;23.226;2022-12-18T02:13:39;27.35;;;11.18;;
56242;SDS011;42155;53.096;23.226;2022-12-18T02:18:15;36.80;;;13.23;;
56242;SDS011;42155;53.096;23.226;2022-12-18T02:27:10;22.45;;;8.30;;
56242;SDS011;42155;53.096;23.226;2022-12-18T02:31:27;34.65;;;12.27;;
56242;SDS011;42155;53.096;23.226;2022-12-18T02:33:31;20.42;;;8.75;;
56242;SDS011;42155;53.096;23.226;2022-12-18T02:35:34;27.88;;;10.55;;
56242;SDS011;42155;53.096;23.226;2022-12-18T02:37:37;23.77;;;9.68;;
56242;SDS011;42155;53.096;23.226;2022-12-18T02:39:41;15.93;;;6.45;;
56242;SDS011;42155;53.096;23.226;2022-12-18T02:41:44;19.35;;;8.20;;
56242;SDS011;42155;53.096;23.226;2022-12-18T02:43:48;28.63;;;11.68;;
56242;SDS011;42155;53.096;23.226;2022-12-18T02:45:57;21.58;;;9.15;;
56242;SDS011;42155;53.096;23.226;2022-12-18T02:47:59;22.13;;;10.23;;
56242;SDS011;42155;53.096;23.226;2022-12-18T02:57:24;22.33;;;9.80;;
56242;SDS011;42155;53.096;23.226;2022-12-18T02:59:39;25.88;;;10.00;;
56242;SDS011;42155;53.096;23.226;2022-12-18T03:01:58;33.38;;;11.45;;
56242;SDS011;42155;53.096;23.226;2022-12-18T03:04:04;21.48;;;9.27;;
56242;SDS011;42155;53.096;23.226;2022-12-18T03:08:31;21.58;;;11.07;;
56242;SDS011;42155;53.096;23.226;2022-12-18T03:10:38;13.20;;;6.53;;
56242;SDS011;42155;53.096;23.226;2022-12-18T03:12:47;19.02;;;7.05;;
56242;SDS011;42155;53.096;23.226;2022-12-18T03:17:00;24.02;;;10.40;;
56242;SDS011;42155;53.096;23.226;2022-12-18T03:19:08;25.85;;;10.32;;
56242;SDS011;42155;53.096;23.226;2022-12-18T03:21:13;22.08;;;8.85;;
56242;SDS011;42155;53.096;23.226;2022-12-18T03:23:17;23.00;;;10.73;;
56242;SDS011;42155;53.096;23.226;2022-12-18T03:25:21;30.35;;;11.57;;
56242;SDS011;42155;53.096;23.226;2022-12-18T03:27:24;29.42;;;10.43;;
56242;SDS011;42155;53.096;23.226;2022-12-18T03:31:39;27.25;;;10.55;;
56242;SDS011;42155;53.096;23.226;2022-12-18T03:33:46;23.83;;;10.38;;
56242;SDS011;42155;53.096;23.226;2022-12-18T03:35:51;20.92;;;9.35;;
56242;SDS011;42155;53.096;23.226;2022-12-18T03:37:51;25.38;;;9.57;;
56242;SDS011;42155;53.096;23.226;2022-12-18T03:39:52;23.38;;;9.88;;
56242;SDS011;42155;53.096;23.226;2022-12-18T03:41:55;28.35;;;9.65;;
56242;SDS011;42155;53.096;23.226;2022-12-18T03:44:08;23.23;;;9.38;;
56242;SDS011;42155;53.096;23.226;2022-12-18T03:46:33;22.90;;;9.13;;
56242;SDS011;42155;53.096;23.226;2022-12-18T03:48:52;26.83;;;9.80;;
56242;SDS011;42155;53.096;23.226;2022-12-18T03:51:23;23.05;;;9.50;;
56242;SDS011;42155;53.096;23.226;2022-12-18T03:55:46;21.77;;;8.35;;
56242;SDS011;42155;53.096;23.226;2022-12-18T03:57:48;26.45;;;9.82;;
56242;SDS011;42155;53.096;23.226;2022-12-18T03:59:53;28.02;;;10.88;;
56242;SDS011;42155;53.096;23.226;2022-12-18T04:01:57;21.95;;;9.00;;
56242;SDS011;42155;53.096;23.226;2022-12-18T04:04:00;26.58;;;9.63;;
56242;SDS011;42155;53.096;23.226;2022-12-18T04:06:01;26.33;;;10.30;;
56242;SDS011;42155;53.096;23.226;2022-12-18T04:08:03;25.90;;;9.63;;
56242;SDS011;42155;53.096;23.226;2022-12-18T04:10:05;25.60;;;10.77;;
56242;SDS011;42155;53.096;23.226;2022-12-18T04:12:08;25.02;;;10.25;;
56242;SDS011;42155;53.096;23.226;2022-12-18T04:14:09;25.40;;;9.27;;
56242;SDS011;42155;53.096;23.226;2022-12-18T04:16:09;22.73;;;9.65;;
56242;SDS011;42155;53.096;23.226;2022-12-18T04:18:10;24.73;;;9.77;;
56242;SDS011;42155;53.096;23.226;2022-12-18T04:20:10;25.15;;;10.38;;
56242;SDS011;42155;53.096;23.226;2022-12-18T04:22:10;27.35;;;9.85;;
56242;SDS011;42155;53.096;23.226;2022-12-18T04:24:11;21.92;;;8.93;;
56242;SDS011;42155;53.096;23.226;2022-12-18T04:26:12;28.58;;;10.57;;
56242;SDS011;42155;53.096;23.226;2022-12-18T04:28:12;20.17;;;8.10;;
56242;SDS011;42155;53.096;23.226;2022-12-18T04:30:12;23.42;;;8.93;;
56242;SDS011;42155;53.096;23.226;2022-12-18T04:32:12;27.48;;;9.77;;
56242;SDS011;42155;53.096;23.226;2022-12-18T04:34:13;22.83;;;9.88;;
56242;SDS011;42155;53.096;23.226;2022-12-18T04:36:13;28.33;;;10.43;;
56242;SDS011;42155;53.096;23.226;2022-12-18T04:38:14;23.90;;;8.93;;
56242;SDS011;42155;53.096;23.226;2022-12-18T04:40:14;21.77;;;8.52;;
56242;SDS011;42155;53.096;23.226;2022-12-18T04:42:14;19.70;;;9.02;;
56242;SDS011;42155;53.096;23.226;2022-12-18T04:44:15;26.85;;;9.38;;
56242;SDS011;42155;53.096;23.226;2022-12-18T04:46:15;16.23;;;6.53;;
56242;SDS011;42155;53.096;23.226;2022-12-18T04:48:15;24.83;;;9.25;;
56242;SDS011;42155;53.096;23.226;2022-12-18T04:50:16;28.98;;;10.68;;
56242;SDS011;42155;53.096;23.226;2022-12-18T04:52:16;26.75;;;10.68;;
56242;SDS011;42155;53.096;23.226;2022-12-18T04:54:19;22.45;;;10.10;;
56242;SDS011;42155;53.096;23.226;2022-12-18T04:56:20;27.40;;;10.00;;
56242;SDS011;42155;53.096;23.226;2022-12-18T04:58:20;22.02;;;8.80;;
56242;SDS011;42155;53.096;23.226;2022-12-18T05:00:21;25.42;;;9.35;;
56242;SDS011;42155;53.096;23.226;2022-12-18T05:02:21;29.77;;;10.75;;
56242;SDS011;42155;53.096;23.226;2022-12-18T05:04:22;27.70;;;9.90;;
56242;SDS011;42155;53.096;23.226;2022-12-18T05:06:22;20.60;;;8.75;;
56242;SDS011;42155;53.096;23.226;2022-12-18T05:08:22;24.25;;;9.98;;
56242;SDS011;42155;53.096;23.226;2022-12-18T05:10:23;22.98;;;9.32;;
56242;SDS011;42155;53.096;23.226;2022-12-18T05:12:23;26.98;;;9.60;;
56242;SDS011;42155;53.096;23.226;2022-12-18T05:14:23;28.40;;;10.55;;
56242;SDS011;42155;53.096;23.226;2022-12-18T05:16:24;25.52;;;9.90;;
56242;SDS011;42155;53.096;23.226;2022-12-18T05:18:24;26.60;;;9.55;;
56242;SDS011;42155;53.096;23.226;2022-12-18T05:20:26;26.90;;;10.85;;
56242;SDS011;42155;53.096;23.226;2022-12-18T05:22:26;20.77;;;8.23;;
56242;SDS011;42155;53.096;23.226;2022-12-18T05:24:27;24.40;;;9.20;;
56242;SDS011;42155;53.096;23.226;2022-12-18T05:26:27;30.73;;;10.73;;
56242;SDS011;42155;53.096;23.226;2022-12-18T05:28:28;29.67;;;10.93;;
56242;SDS011;42155;53.096;23.226;2022-12-18T05:30:30;26.17;;;9.70;;
56242;SDS011;42155;53.096;23.226;2022-12-18T05:32:30;26.33;;;9.45;;
56242;SDS011;42155;53.096;23.226;2022-12-18T05:34:30;30.75;;;11.02;;
56242;SDS011;42155;53.096;23.226;2022-12-18T05:36:31;29.33;;;9.00;;
56242;SDS011;42155;53.096;23.226;2022-12-18T05:38:31;31.65;;;10.30;;
56242;SDS011;42155;53.096;23.226;2022-12-18T05:40:33;26.98;;;10.45;;
56242;SDS011;42155;53.096;23.226;2022-12-18T05:42:34;24.80;;;10.32;;
56242;SDS011;42155;53.096;23.226;2022-12-18T05:44:34;31.80;;;9.98;;
56242;SDS011;42155;53.096;23.226;2022-12-18T05:46:34;23.67;;;10.02;;
56242;SDS011;42155;53.096;23.226;2022-12-18T05:48:35;24.92;;;9.73;;
56242;SDS011;42155;53.096;23.226;2022-12-18T05:50:36;27.65;;;10.60;;
56242;SDS011;42155;53.096;23.226;2022-12-18T05:52:37;29.80;;;10.57;;
56242;SDS011;42155;53.096;23.226;2022-12-18T05:54:38;25.98;;;9.20;;
56242;SDS011;42155;53.096;23.226;2022-12-18T05:56:38;27.60;;;10.40;;
56242;SDS011;42155;53.096;23.226;2022-12-18T05:58:38;21.38;;;8.70;;
56242;SDS011;42155;53.096;23.226;2022-12-18T06:00:39;29.90;;;10.70;;
56242;SDS011;42155;53.096;23.226;2022-12-18T06:02:41;23.77;;;9.32;;
56242;SDS011;42155;53.096;23.226;2022-12-18T06:04:41;25.00;;;9.43;;
56242;SDS011;42155;53.096;23.226;2022-12-18T06:06:41;40.53;;;14.18;;
56242;SDS011;42155;53.096;23.226;2022-12-18T06:08:42;41.83;;;14.85;;
56242;SDS011;42155;53.096;23.226;2022-12-18T06:10:45;43.15;;;14.35;;
56242;SDS011;42155;53.096;23.226;2022-12-18T06:12:50;37.65;;;13.80;;
56242;SDS011;42155;53.096;23.226;2022-12-18T06:14:50;27.55;;;10.90;;
56242;SDS011;42155;53.096;23.226;2022-12-18T06:16:51;32.30;;;10.75;;
56242;SDS011;42155;53.096;23.226;2022-12-18T06:18:51;29.88;;;11.52;;
56242;SDS011;42155;53.096;23.226;2022-12-18T06:20:58;30.02;;;11.45;;
56242;SDS011;42155;53.096;23.226;2022-12-18T06:22:59;25.73;;;9.55;;
56242;SDS011;42155;53.096;23.226;2022-12-18T06:24:59;31.40;;;11.02;;
56242;SDS011;42155;53.096;23.226;2022-12-18T06:27:00;30.42;;;10.70;;
56242;SDS011;42155;53.096;23.226;2022-12-18T06:29:00;30.52;;;11.35;;
56242;SDS011;42155;53.096;23.226;2022-12-18T06:31:02;32.03;;;11.27;;
56242;SDS011;42155;53.096;23.226;2022-12-18T06:33:03;36.92;;;12.75;;
56242;SDS011;42155;53.096;23.226;2022-12-18T06:35:03;35.35;;;12.30;;
56242;SDS011;42155;53.096;23.226;2022-12-18T06:37:04;34.55;;;12.93;;
56242;SDS011;42155;53.096;23.226;2022-12-18T06:39:05;30.38;;;12.30;;
56242;SDS011;42155;53.096;23.226;2022-12-18T06:41:08;33.47;;;12.60;;
56242;SDS011;42155;53.096;23.226;2022-12-18T06:43:12;35.80;;;13.65;;
56242;SDS011;42155;53.096;23.226;2022-12-18T06:45:13;38.67;;;12.68;;
56242;SDS011;42155;53.096;23.226;2022-12-18T06:47:13;34.97;;;11.68;;
56242;SDS011;42155;53.096;23.226;2022-12-18T06:49:14;37.25;;;14.20;;
56242;SDS011;42155;53.096;23.226;2022-12-18T06:51:17;40.63;;;14.52;;
56242;SDS011;42155;53.096;23.226;2022-12-18T06:53:22;45.10;;;15.38;;
56242;SDS011;42155;53.096;23.226;2022-12-18T06:55:23;41.55;;;14.55;;
56242;SDS011;42155;53.096;23.226;2022-12-18T06:57:23;36.28;;;14.70;;
56242;SDS011;42155;53.096;23.226;2022-12-18T06:59:24;41.75;;;14.32;;
56242;SDS011;42155;53.096;23.226;2022-12-18T07:01:24;40.30;;;13.98;;
56242;SDS011;42155;53.096;23.226;2022-12-18T07:03:24;39.80;;;14.23;;
56242;SDS011;42155;53.096;23.226;2022-12-18T07:05:25;42.50;;;14.07;;
56242;SDS011;42155;53.096;23.226;2022-12-18T07:07:25;40.85;;;15.25;;
56242;SDS011;42155;53.096;23.226;2022-12-18T07:09:25;39.53;;;15.02;;
56242;SDS011;42155;53.096;23.226;2022-12-18T07:11:26;38.88;;;14.23;;
56242;SDS011;42155;53.096;23.226;2022-12-18T07:13:27;33.63;;;13.07;;
56242;SDS011;42155;53.096;23.226;2022-12-18T07:15:27;32.50;;;12.95;;
56242;SDS011;42155;53.096;23.226;2022-12-18T07:17:27;39.90;;;13.15;;
56242;SDS011;42155;53.096;23.226;2022-12-18T07:19:28;36.83;;;12.43;;
56242;SDS011;42155;53.096;23.226;2022-12-18T07:21:29;36.45;;;12.95;;
56242;SDS011;42155;53.096;23.226;2022-12-18T07:23:29;39.35;;;13.48;;
56242;SDS011;42155;53.096;23.226;2022-12-18T07:25:34;26.58;;;11.23;;
56242;SDS011;42155;53.096;23.226;2022-12-18T07:27:35;38.65;;;13.98;;
56242;SDS011;42155;53.096;23.226;2022-12-18T07:29:35;38.00;;;12.77;;
56242;SDS011;42155;53.096;23.226;2022-12-18T07:31:36;31.60;;;11.40;;
56242;SDS011;42155;53.096;23.226;2022-12-18T07:33:36;33.67;;;12.43;;
56242;SDS011;42155;53.096;23.226;2022-12-18T07:35:37;32.08;;;12.45;;
56242;SDS011;42155;53.096;23.226;2022-12-18T07:37:37;31.95;;;11.38;;
56242;SDS011;42155;53.096;23.226;2022-12-18T07:39:37;35.25;;;12.57;;
56242;SDS011;42155;53.096;23.226;2022-12-18T07:41:38;37.45;;;13.05;;
56242;SDS011;42155;53.096;23.226;2022-12-18T07:43:38;30.73;;;12.80;;
56242;SDS011;42155;53.096;23.226;2022-12-18T07:45:40;35.28;;;11.77;;
56242;SDS011;42155;53.096;23.226;2022-12-18T07:47:40;30.90;;;11.15;;
56242;SDS011;42155;53.096;23.226;2022-12-18T07:49:40;31.83;;;11.25;;
56242;SDS011;42155;53.096;23.226;2022-12-18T07:51:41;27.63;;;9.77;;
56242;SDS011;42155;53.096;23.226;2022-12-18T07:53:41;29.70;;;11.77;;
56242;SDS011;42155;53.096;23.226;2022-12-18T07:55:41;35.30;;;12.00;;
56242;SDS011;42155;53.096;23.226;2022-12-18T07:57:42;30.73;;;11.38;;
56242;SDS011;42155;53.096;23.226;2022-12-18T07:59:43;36.30;;;12.60;;
56242;SDS011;42155;53.096;23.226;2022-12-18T08:01:43;39.20;;;13.25;;
56242;SDS011;42155;53.096;23.226;2022-12-18T08:03:44;37.72;;;14.10;;
56242;SDS011;42155;53.096;23.226;2022-12-18T08:05:44;35.05;;;12.65;;
56242;SDS011;42155;53.096;23.226;2022-12-18T08:07:45;35.40;;;12.65;;
56242;SDS011;42155;53.096;23.226;2022-12-18T08:09:45;39.95;;;13.93;;
56242;SDS011;42155;53.096;23.226;2022-12-18T08:11:45;37.10;;;14.25;;
56242;SDS011;42155;53.096;23.226;2022-12-18T08:13:46;42.53;;;14.90;;
56242;SDS011;42155;53.096;23.226;2022-12-18T08:15:46;32.08;;;12.70;;
56242;SDS011;42155;53.096;23.226;2022-12-18T08:17:57;37.28;;;13.77;;
56242;SDS011;42155;53.096;23.226;2022-12-18T08:19:58;33.67;;;13.20;;
56242;SDS011;42155;53.096;23.226;2022-12-18T08:21:58;34.67;;;13.70;;
56242;SDS011;42155;53.096;23.226;2022-12-18T08:23:59;29.48;;;12.88;;
56242;SDS011;42155;53.096;23.226;2022-12-18T08:26:00;34.80;;;13.82;;
56242;SDS011;42155;53.096;23.226;2022-12-18T08:28:01;34.70;;;13.68;;
56242;SDS011;42155;53.096;23.226;2022-12-18T08:30:01;32.42;;;12.63;;
56242;SDS011;42155;53.096;23.226;2022-12-18T08:32:02;32.97;;;12.75;;
56242;SDS011;42155;53.096;23.226;2022-12-18T08:34:02;36.55;;;13.00;;
56242;SDS011;42155;53.096;23.226;2022-12-18T08:36:03;35.15;;;12.55;;
56242;SDS011;42155;53.096;23.226;2022-12-18T08:38:04;31.02;;;11.75;;
56242;SDS011;42155;53.096;23.226;2022-12-18T08:40:05;32.08;;;13.15;;
56242;SDS011;42155;53.096;23.226;2022-12-18T08:42:06;35.70;;;11.82;;
56242;SDS011;42155;53.096;23.226;2022-12-18T08:44:09;34.08;;;12.25;;
56242;SDS011;42155;53.096;23.226;2022-12-18T08:46:10;37.85;;;13.43;;
56242;SDS011;42155;53.096;23.226;2022-12-18T08:48:10;34.40;;;12.70;;
56242;SDS011;42155;53.096;23.226;2022-12-18T08:50:11;32.45;;;12.95;;
56242;SDS011;42155;53.096;23.226;2022-12-18T08:52:11;38.85;;;15.20;;
56242;SDS011;42155;53.096;23.226;2022-12-18T08:54:11;45.15;;;17.10;;
56242;SDS011;42155;53.096;23.226;2022-12-18T08:56:12;47.33;;;18.23;;
56242;SDS011;42155;53.096;23.226;2022-12-18T08:58:13;49.13;;;19.10;;
56242;SDS011;42155;53.096;23.226;2022-12-18T09:00:14;47.65;;;16.90;;
56242;SDS011;42155;53.096;23.226;2022-12-18T09:02:14;36.67;;;14.32;;
56242;SDS011;42155;53.096;23.226;2022-12-18T09:04:15;36.08;;;13.52;;
56242;SDS011;42155;53.096;23.226;2022-12-18T09:06:16;36.65;;;14.02;;
56242;SDS011;42155;53.096;23.226;2022-12-18T09:08:17;41.42;;;14.43;;
56242;SDS011;42155;53.096;23.226;2022-12-18T09:10:18;45.97;;;16.35;;
56242;SDS011;42155;53.096;23.226;2022-12-18T09:12:18;45.13;;;16.08;;
56242;SDS011;42155;53.096;23.226;2022-12-18T09:14:18;55.08;;;17.38;;
56242;SDS011;42155;53.096;23.226;2022-12-18T09:16:19;52.03;;;15.88;;
56242;SDS011;42155;53.096;23.226;2022-12-18T09:18:21;42.20;;;14.98;;
56242;SDS011;42155;53.096;23.226;2022-12-18T09:20:22;48.03;;;16.70;;
56242;SDS011;42155;53.096;23.226;2022-12-18T09:22:23;44.03;;;15.32;;
56242;SDS011;42155;53.096;23.226;2022-12-18T09:24:23;43.95;;;15.38;;
56242;SDS011;42155;53.096;23.226;2022-12-18T09:26:24;37.15;;;13.85;;
56242;SDS011;42155;53.096;23.226;2022-12-18T09:28:25;30.23;;;11.98;;
56242;SDS011;42155;53.096;23.226;2022-12-18T09:30:26;40.47;;;14.65;;
56242;SDS011;42155;53.096;23.226;2022-12-18T09:32:26;33.20;;;13.07;;
56242;SDS011;42155;53.096;23.226;2022-12-18T09:34:26;38.33;;;14.50;;
56242;SDS011;42155;53.096;23.226;2022-12-18T09:36:27;33.05;;;13.30;;
56242;SDS011;42155;53.096;23.226;2022-12-18T09:38:27;33.85;;;13.05;;
56242;SDS011;42155;53.096;23.226;2022-12-18T09:40:28;33.97;;;12.57;;
56242;SDS011;42155;53.096;23.226;2022-12-18T09:42:39;37.13;;;14.27;;
56242;SDS011;42155;53.096;23.226;2022-12-18T09:44:41;35.03;;;13.35;;
56242;SDS011;42155;53.096;23.226;2022-12-18T09:49:22;41.70;;;13.82;;
56242;SDS011;42155;53.096;23.226;2022-12-18T09:51:30;42.67;;;15.50;;
56242;SDS011;42155;53.096;23.226;2022-12-18T09:53:35;43.78;;;15.27;;
56242;SDS011;42155;53.096;23.226;2022-12-18T09:55:42;39.20;;;15.00;;
56242;SDS011;42155;53.096;23.226;2022-12-18T09:57:49;45.35;;;15.50;;
56242;SDS011;42155;53.096;23.226;2022-12-18T09:59:55;35.10;;;14.70;;
56242;SDS011;42155;53.096;23.226;2022-12-18T10:01:58;31.25;;;13.88;;
56242;SDS011;42155;53.096;23.226;2022-12-18T10:03:58;34.33;;;13.45;;
56242;SDS011;42155;53.096;23.226;2022-12-18T10:08:17;31.60;;;12.45;;
56242;SDS011;42155;53.096;23.226;2022-12-18T10:10:31;34.50;;;14.02;;
56242;SDS011;42155;53.096;23.226;2022-12-18T10:14:49;39.28;;;15.15;;
56242;SDS011;42155;53.096;23.226;2022-12-18T10:16:57;34.22;;;13.90;;
56242;SDS011;42155;53.096;23.226;2022-12-18T10:21:38;35.95;;;13.43;;
56242;SDS011;42155;53.096;23.226;2022-12-18T10:26:32;33.15;;;12.73;;
56242;SDS011;42155;53.096;23.226;2022-12-18T10:28:33;38.38;;;14.60;;
56242;SDS011;42155;53.096;23.226;2022-12-18T10:30:37;36.30;;;12.57;;
56242;SDS011;42155;53.096;23.226;2022-12-18T10:32:39;31.52;;;12.73;;
56242;SDS011;42155;53.096;23.226;2022-12-18T10:34:39;40.10;;;14.55;;
56242;SDS011;42155;53.096;23.226;2022-12-18T10:36:40;35.75;;;13.95;;
56242;SDS011;42155;53.096;23.226;2022-12-18T10:38:41;41.60;;;16.30;;
56242;SDS011;42155;53.096;23.226;2022-12-18T10:40:49;38.50;;;14.90;;
56242;SDS011;42155;53.096;23.226;2022-12-18T10:43:05;35.42;;;13.85;;
56242;SDS011;42155;53.096;23.226;2022-12-18T10:45:15;34.58;;;14.25;;
56242;SDS011;42155;53.096;23.226;2022-12-18T10:47:17;40.78;;;14.90;;
56242;SDS011;42155;53.096;23.226;2022-12-18T10:49:31;33.85;;;14.32;;
56242;SDS011;42155;53.096;23.226;2022-12-18T10:51:34;36.22;;;12.95;;
56242;SDS011;42155;53.096;23.226;2022-12-18T10:53:36;33.17;;;13.75;;
56242;SDS011;42155;53.096;23.226;2022-12-18T10:55:38;41.30;;;15.48;;
56242;SDS011;42155;53.096;23.226;2022-12-18T10:57:43;33.75;;;14.48;;
56242;SDS011;42155;53.096;23.226;2022-12-18T10:59:51;38.22;;;14.65;;
56242;SDS011;42155;53.096;23.226;2022-12-18T11:01:55;33.10;;;14.43;;
56242;SDS011;42155;53.096;23.226;2022-12-18T11:06:13;29.83;;;12.05;;
56242;SDS011;42155;53.096;23.226;2022-12-18T11:08:21;26.13;;;11.63;;
56242;SDS011;42155;53.096;23.226;2022-12-18T11:10:25;27.48;;;11.15;;
56242;SDS011;42155;53.096;23.226;2022-12-18T11:12:30;32.17;;;12.15;;
56242;SDS011;42155;53.096;23.226;2022-12-18T11:14:32;26.35;;;11.15;;
56242;SDS011;42155;53.096;23.226;2022-12-18T11:16:34;32.72;;;13.10;;
56242;SDS011;42155;53.096;23.226;2022-12-18T11:18:42;31.45;;;11.73;;
56242;SDS011;42155;53.096;23.226;2022-12-18T11:20:42;31.60;;;12.95;;
56242;SDS011;42155;53.096;23.226;2022-12-18T11:22:54;29.08;;;13.05;;
56242;SDS011;42155;53.096;23.226;2022-12-18T11:25:16;32.30;;;12.95;;
56242;SDS011;42155;53.096;23.226;2022-12-18T11:27:19;33.13;;;12.38;;
56242;SDS011;42155;53.096;23.226;2022-12-18T11:29:23;36.65;;;13.98;;
56242;SDS011;42155;53.096;23.226;2022-12-18T11:31:29;31.95;;;13.63;;
56242;SDS011;42155;53.096;23.226;2022-12-18T11:33:29;33.03;;;13.30;;
56242;SDS011;42155;53.096;23.226;2022-12-18T11:35:35;34.38;;;13.90;;
56242;SDS011;42155;53.096;23.226;2022-12-18T11:37:54;39.30;;;14.85;;
56242;SDS011;42155;53.096;23.226;2022-12-18T11:40:00;40.60;;;15.15;;
56242;SDS011;42155;53.096;23.226;2022-12-18T11:42:12;38.17;;;15.13;;
56242;SDS011;42155;53.096;23.226;2022-12-18T11:44:28;42.30;;;15.02;;
56242;SDS011;42155;53.096;23.226;2022-12-18T11:46:37;37.90;;;14.82;;
56242;SDS011;42155;53.096;23.226;2022-12-18T11:48:44;42.53;;;15.65;;
56242;SDS011;42155;53.096;23.226;2022-12-18T11:52:58;33.78;;;13.25;;
56242;SDS011;42155;53.096;23.226;2022-12-18T11:54:59;39.28;;;15.57;;
56242;SDS011;42155;53.096;23.226;2022-12-18T11:59:38;39.40;;;15.63;;
56242;SDS011;42155;53.096;23.226;2022-12-18T12:01:55;46.33;;;16.13;;
56242;SDS011;42155;53.096;23.226;2022-12-18T12:23:19;45.85;;;18.33;;
56242;SDS011;42155;53.096;23.226;2022-12-18T12:27:42;46.08;;;17.95;;
56242;SDS011;42155;53.096;23.226;2022-12-18T12:30:03;43.90;;;16.88;;
56242;SDS011;42155;53.096;23.226;2022-12-18T12:32:14;40.63;;;16.25;;
56242;SDS011;42155;53.096;23.226;2022-12-18T12:38:36;42.80;;;16.83;;
56242;SDS011;42155;53.096;23.226;2022-12-18T12:40:49;52.03;;;18.15;;
56242;SDS011;42155;53.096;23.226;2022-12-18T12:42:55;40.85;;;17.35;;
56242;SDS011;42155;53.096;23.226;2022-12-18T12:44:59;45.97;;;18.05;;
56242;SDS011;42155;53.096;23.226;2022-12-18T12:47:20;47.05;;;17.73;;
56242;SDS011;42155;53.096;23.226;2022-12-18T12:49:27;48.50;;;18.25;;
56242;SDS011;42155;53.096;23.226;2022-12-18T12:51:32;47.30;;;19.00;;
56242;SDS011;42155;53.096;23.226;2022-12-18T12:53:35;49.28;;;18.40;;
56242;SDS011;42155;53.096;23.226;2022-12-18T12:55:37;47.33;;;17.85;;
56242;SDS011;42155;53.096;23.226;2022-12-18T12:57:41;46.45;;;17.08;;
56242;SDS011;42155;53.096;23.226;2022-12-18T13:04:39;48.60;;;17.90;;
56242;SDS011;42155;53.096;23.226;2022-12-18T13:06:51;49.40;;;18.35;;
56242;SDS011;42155;53.096;23.226;2022-12-18T13:08:59;47.05;;;17.33;;
56242;SDS011;42155;53.096;23.226;2022-12-18T13:11:00;43.92;;;16.45;;
56242;SDS011;42155;53.096;23.226;2022-12-18T13:13:10;44.00;;;16.48;;
56242;SDS011;42155;53.096;23.226;2022-12-18T13:15:13;48.20;;;17.77;;